NCAR-RAP Real-Time Weather Data

Output produced by METARs form (10 April 2020  07:23 UTC)
found at http://weather.rap.ucar.edu/surface/
 
KGGW 100653Z AUTO 11011KT 10SM CLR M01/M08 A2989 RMK AO2 SLP147 T10111083 400831067
KGGW 100553Z AUTO 11012KT 10SM CLR 00/M09 A2991 RMK AO2 SLP155 T00001089 10083 21006 58019
KGGW 100453Z AUTO 11011KT 10SM CLR 00/M09 A2993 RMK AO2 SLP162 T00001089
KGGW 100353Z AUTO 10009KT 10SM CLR 01/M09 A2996 RMK AO2 SLP174 T00111094
KGGW 100253Z AUTO 10009KT 10SM CLR 03/M10 A2997 RMK AO2 SLP176 T00281100 56023
KGGW 100153Z AUTO 12009KT 10SM CLR 05/M10 A2998 RMK AO2 SLP177 T00501100
KGGW 100053Z AUTO 13010KT 10SM CLR 07/M11 A3001 RMK AO2 SLP190 T00721111
KGGW 092353Z AUTO 15008KT 10SM CLR 08/M12 A3005 RMK AO2 SLP200 T00781117 10083 20017 56031
KGGW 092253Z AUTO 16010KT 10SM CLR 07/M11 A3006 RMK AO2 SLP207 T00721111
KGGW 092153Z AUTO 18009KT 10SM CLR 07/M12 A3010 RMK AO2 SLP217 T00721117
KGGW 092053Z AUTO 16008KT 10SM CLR 06/M13 A3015 RMK AO2 SLP234 T00611133 56037
KGGW 091953Z AUTO 18010G15KT 10SM CLR 05/M10 A3018 RMK AO2 SLP246 T00501100
KGGW 091853Z AUTO VRB05KT 10SM CLR 03/M12 A3022 RMK AO2 SLP261 T00331117
KGGW 091753Z AUTO VRB04KT 10SM CLR 02/M11 A3026 RMK AO2 SLP275 T00221106 10022 21067 58015
KGGW 091653Z AUTO VRB04KT 10SM CLR 01/M11 A3028 RMK AO2 SLP283 T00061106
KGGW 091553Z AUTO 00000KT 10SM CLR M01/M11 A3030 RMK AO2 SLP288 T10111106
KGGW 091453Z AUTO 02004KT 10SM CLR M02/M09 A3031 RMK AO2 SLP293 T10221094 51008
KGGW 091353Z AUTO 01005KT 10SM CLR M03/M09 A3031 RMK AO2 SLP293 T10331094
KGGW 091253Z AUTO 34003KT 10SM CLR M06/M11 A3030 RMK AO2 SLP292 T10611106
KGGW 091153Z AUTO 33007KT 10SM CLR M06/M11 A3028 RMK AO2 SLP283 T10611106 11006 21061 53017
KGGW 091053Z AUTO 32008KT 10SM CLR M05/M09 A3026 RMK AO2 SLP277 T10501094
KGGW 090953Z AUTO 32011KT 10SM CLR M04/M09 A3025 RMK AO2 SLP269 T10391094